sensor_id;sensor_type;location;lat;lon;timestamp;pressure;altitude;pressure_sealevel;temperature;humidity
20987;BME280;10652;50.306;8.570;2024-03-07T00:00:30;98677.22;;;2.79;98.68
20987;BME280;10652;50.306;8.570;2024-03-07T00:04:33;98671.97;;;2.87;98.71
20987;BME280;10652;50.306;8.570;2024-03-07T00:08:37;98675.50;;;2.80;98.19
20987;BME280;10652;50.306;8.570;2024-03-07T00:12:40;98672.00;;;2.85;99.91
20987;BME280;10652;50.306;8.570;2024-03-07T00:16:44;98667.59;;;3.00;100.00
20987;BME280;10652;50.306;8.570;2024-03-07T00:20:46;98670.09;;;3.13;100.00
20987;BME280;10652;50.306;8.570;2024-03-07T00:24:49;98670.94;;;3.14;99.11
20987;BME280;10652;50.306;8.570;2024-03-07T00:28:51;98670.09;;;3.10;98.06
20987;BME280;10652;50.306;8.570;2024-03-07T00:32:53;98672.75;;;3.04;98.20
20987;BME280;10652;50.306;8.570;2024-03-07T00:36:57;98668.44;;;3.00;98.17
20987;BME280;10652;50.306;8.570;2024-03-07T00:41:01;98675.41;;;2.92;98.18
20987;BME280;10652;50.306;8.570;2024-03-07T00:45:03;98665.97;;;2.83;98.30
20987;BME280;10652;50.306;8.570;2024-03-07T00:49:05;98665.97;;;2.77;98.50
20987;BME280;10652;50.306;8.570;2024-03-07T00:53:08;98661.78;;;2.63;98.60
20987;BME280;10652;50.306;8.570;2024-03-07T00:57:10;98663.53;;;2.58;99.07
20987;BME280;10652;50.306;8.570;2024-03-07T01:01:12;98660.13;;;2.50;99.80
20987;BME280;10652;50.306;8.570;2024-03-07T01:05:17;98661.00;;;2.41;99.77
20987;BME280;10652;50.306;8.570;2024-03-07T01:09:19;98668.84;;;2.27;99.56
20987;BME280;10652;50.306;8.570;2024-03-07T01:13:22;98659.41;;;2.17;100.00
20987;BME280;10652;50.306;8.570;2024-03-07T01:17:26;98662.88;;;2.10;100.00
20987;BME280;10652;50.306;8.570;2024-03-07T01:21:28;98657.69;;;2.07;100.00
20987;BME280;10652;50.306;8.570;2024-03-07T01:25:31;98665.47;;;2.02;100.00
20987;BME280;10652;50.306;8.570;2024-03-07T01:29:35;98655.13;;;1.96;100.00
20987;BME280;10652;50.306;8.570;2024-03-07T01:33:38;98658.59;;;1.92;100.00
20987;BME280;10652;50.306;8.570;2024-03-07T01:37:40;98656.00;;;1.86;100.00
20987;BME280;10652;50.306;8.570;2024-03-07T01:41:42;98659.50;;;1.84;100.00
20987;BME280;10652;50.306;8.570;2024-03-07T01:45:45;98656.91;;;1.81;100.00
20987;BME280;10652;50.306;8.570;2024-03-07T01:49:48;98660.38;;;1.74;100.00
20987;BME280;10652;50.306;8.570;2024-03-07T01:53:51;98654.34;;;1.69;100.00
20987;BME280;10652;50.306;8.570;2024-03-07T01:57:56;98646.59;;;1.63;100.00
20987;BME280;10652;50.306;8.570;2024-03-07T02:02:00;98648.34;;;1.57;100.00
20987;BME280;10652;50.306;8.570;2024-03-07T02:06:04;98638.84;;;1.52;100.00
20987;BME280;10652;50.306;8.570;2024-03-07T02:10:06;98639.72;;;1.49;100.00
20987;BME280;10652;50.306;8.570;2024-03-07T02:14:11;98634.53;;;1.43;100.00
20987;BME280;10652;50.306;8.570;2024-03-07T02:18:13;98639.75;;;1.40;100.00
20987;BME280;10652;50.306;8.570;2024-03-07T02:22:16;98639.72;;;1.37;100.00
20987;BME280;10652;50.306;8.570;2024-03-07T02:26:19;98632.84;;;1.30;100.00
20987;BME280;10652;50.306;8.570;2024-03-07T02:30:21;98629.41;;;1.27;100.00
20987;BME280;10652;50.306;8.570;2024-03-07T02:34:23;98629.38;;;1.30;100.00
20987;BME280;10652;50.306;8.570;2024-03-07T02:38:25;98620.75;;;1.35;100.00
20987;BME280;10652;50.306;8.570;2024-03-07T02:42:27;98622.47;;;1.42;100.00
20987;BME280;10652;50.306;8.570;2024-03-07T02:46:29;98622.44;;;1.51;100.00
20987;BME280;10652;50.306;8.570;2024-03-07T02:50:31;98624.16;;;1.62;100.00
20987;BME280;10652;50.306;8.570;2024-03-07T02:54:34;98623.25;;;1.73;100.00
20987;BME280;10652;50.306;8.570;2024-03-07T02:58:36;98621.50;;;1.83;100.00
20987;BME280;10652;50.306;8.570;2024-03-07T03:02:38;98613.72;;;1.89;100.00
20987;BME280;10652;50.306;8.570;2024-03-07T03:06:40;98619.78;;;1.85;100.00
20987;BME280;10652;50.306;8.570;2024-03-07T03:10:42;98616.34;;;1.75;99.39
20987;BME280;10652;50.306;8.570;2024-03-07T03:14:44;98613.81;;;1.58;99.29
20987;BME280;10652;50.306;8.570;2024-03-07T03:18:47;98604.34;;;1.47;99.42
20987;BME280;10652;50.306;8.570;2024-03-07T03:22:51;98601.75;;;1.36;99.79
20987;BME280;10652;50.306;8.570;2024-03-07T03:27:14;98610.41;;;1.29;100.00
20987;BME280;10652;50.306;8.570;2024-03-07T03:31:16;98596.59;;;1.27;100.00
20987;BME280;10652;50.306;8.570;2024-03-07T03:35:18;98602.66;;;1.20;100.00
20987;BME280;10652;50.306;8.570;2024-03-07T03:39:21;98602.66;;;1.22;100.00
20987;BME280;10652;50.306;8.570;2024-03-07T03:43:23;98595.75;;;1.25;100.00
20987;BME280;10652;50.306;8.570;2024-03-07T03:47:25;98596.59;;;1.30;100.00
20987;BME280;10652;50.306;8.570;2024-03-07T03:51:30;98592.28;;;1.25;100.00
20987;BME280;10652;50.306;8.570;2024-03-07T03:55:32;98593.19;;;1.18;100.00
20987;BME280;10652;50.306;8.570;2024-03-07T03:59:34;98589.72;;;1.16;100.00
20987;BME280;10652;50.306;8.570;2024-03-07T04:03:36;98591.44;;;1.15;100.00
20987;BME280;10652;50.306;8.570;2024-03-07T04:07:39;98592.28;;;1.14;100.00
20987;BME280;10652;50.306;8.570;2024-03-07T04:11:45;98596.63;;;1.03;100.00
20987;BME280;10652;50.306;8.570;2024-03-07T04:15:47;98591.44;;;0.91;100.00
20987;BME280;10652;50.306;8.570;2024-03-07T04:19:49;98586.28;;;0.79;100.00
20987;BME280;10652;50.306;8.570;2024-03-07T04:23:53;98589.72;;;0.68;100.00
20987;BME280;10652;50.306;8.570;2024-03-07T04:27:55;98587.97;;;0.64;100.00
20987;BME280;10652;50.306;8.570;2024-03-07T04:31:58;98592.28;;;0.64;100.00
20987;BME280;10652;50.306;8.570;2024-03-07T04:36:00;98584.56;;;0.58;100.00
20987;BME280;10652;50.306;8.570;2024-03-07T04:40:06;98586.28;;;0.54;100.00
20987;BME280;10652;50.306;8.570;2024-03-07T04:44:18;98583.66;;;0.48;100.00
20987;BME280;10652;50.306;8.570;2024-03-07T04:48:21;98581.94;;;0.44;100.00
20987;BME280;10652;50.306;8.570;2024-03-07T04:52:24;98579.34;;;0.40;100.00
20987;BME280;10652;50.306;8.570;2024-03-07T04:56:26;98585.34;;;0.37;100.00
20987;BME280;10652;50.306;8.570;2024-03-07T05:00:28;98585.38;;;0.31;100.00
20987;BME280;10652;50.306;8.570;2024-03-07T05:04:32;98581.88;;;0.28;100.00
20987;BME280;10652;50.306;8.570;2024-03-07T05:08:34;98584.47;;;0.23;100.00
20987;BME280;10652;50.306;8.570;2024-03-07T05:12:37;98592.22;;;0.23;100.00
20987;BME280;10652;50.306;8.570;2024-03-07T05:16:39;98584.47;;;0.23;100.00
20987;BME280;10652;50.306;8.570;2024-03-07T05:20:42;98590.50;;;0.20;100.00
20987;BME280;10652;50.306;8.570;2024-03-07T05:24:44;98586.19;;;0.21;100.00
20987;BME280;10652;50.306;8.570;2024-03-07T05:28:46;98580.16;;;0.23;100.00
20987;BME280;10652;50.306;8.570;2024-03-07T05:32:49;98580.16;;;0.20;100.00
20987;BME280;10652;50.306;8.570;2024-03-07T05:36:51;98584.47;;;0.17;100.00
20987;BME280;10652;50.306;8.570;2024-03-07T05:40:53;98584.44;;;0.14;100.00
20987;BME280;10652;50.306;8.570;2024-03-07T05:44:55;98581.00;;;0.12;100.00
20987;BME280;10652;50.306;8.570;2024-03-07T05:48:58;98585.31;;;0.13;100.00
20987;BME280;10652;50.306;8.570;2024-03-07T05:53:01;98581.84;;;0.09;100.00
20987;BME280;10652;50.306;8.570;2024-03-07T05:57:04;98575.84;;;0.09;100.00
20987;BME280;10652;50.306;8.570;2024-03-07T06:01:08;98587.94;;;0.34;100.00
20987;BME280;10652;50.306;8.570;2024-03-07T06:05:11;98587.09;;;0.50;100.00
20987;BME280;10652;50.306;8.570;2024-03-07T06:09:18;98583.69;;;0.69;100.00
20987;BME280;10652;50.306;8.570;2024-03-07T06:13:23;98579.38;;;0.79;100.00
20987;BME280;10652;50.306;8.570;2024-03-07T06:17:26;98581.94;;;1.00;100.00
20987;BME280;10652;50.306;8.570;2024-03-07T06:21:29;98584.56;;;1.02;100.00
20987;BME280;10652;50.306;8.570;2024-03-07T06:25:34;98581.09;;;0.97;100.00
20987;BME280;10652;50.306;8.570;2024-03-07T06:29:39;98581.09;;;0.97;100.00
20987;BME280;10652;50.306;8.570;2024-03-07T06:33:41;98579.38;;;1.02;100.00
20987;BME280;10652;50.306;8.570;2024-03-07T06:37:44;98583.69;;;1.10;100.00
20987;BME280;10652;50.306;8.570;2024-03-07T06:41:46;98581.97;;;1.11;100.00
20987;BME280;10652;50.306;8.570;2024-03-07T06:45:49;98572.47;;;1.05;100.00
20987;BME280;10652;50.306;8.570;2024-03-07T06:49:51;98582.84;;;1.13;100.00
20987;BME280;10652;50.306;8.570;2024-03-07T06:53:54;98580.25;;;1.13;100.00
20987;BME280;10652;50.306;8.570;2024-03-07T06:57:58;98582.84;;;1.13;100.00
20987;BME280;10652;50.306;8.570;2024-03-07T07:02:00;98579.38;;;1.11;100.00
20987;BME280;10652;50.306;8.570;2024-03-07T07:06:03;98577.66;;;1.16;100.00
20987;BME280;10652;50.306;8.570;2024-03-07T07:10:08;98580.25;;;1.18;100.00
20987;BME280;10652;50.306;8.570;2024-03-07T07:14:31;98580.22;;;1.25;100.00
20987;BME280;10652;50.306;8.570;2024-03-07T07:18:33;98592.28;;;1.34;99.35
20987;BME280;10652;50.306;8.570;2024-03-07T07:22:37;98581.03;;;1.45;99.46
20987;BME280;10652;50.306;8.570;2024-03-07T07:26:40;98573.97;;;1.99;100.00
20987;BME280;10652;50.306;8.570;2024-03-07T07:30:42;98575.63;;;2.06;99.36
20987;BME280;10652;50.306;8.570;2024-03-07T07:34:48;98580.94;;;1.85;96.54
20987;BME280;10652;50.306;8.570;2024-03-07T07:38:50;98572.34;;;1.65;96.13
20987;BME280;10652;50.306;8.570;2024-03-07T07:42:53;98570.66;;;1.62;97.11
20987;BME280;10652;50.306;8.570;2024-03-07T07:46:55;98567.16;;;1.71;97.74
20987;BME280;10652;50.306;8.570;2024-03-07T07:50:57;98572.34;;;1.71;97.43
20987;BME280;10652;50.306;8.570;2024-03-07T07:55:00;98571.47;;;1.72;98.33
20987;BME280;10652;50.306;8.570;2024-03-07T07:59:02;98565.41;;;1.79;98.11
20987;BME280;10652;50.306;8.570;2024-03-07T08:03:06;98556.72;;;1.89;98.39
20987;BME280;10652;50.306;8.570;2024-03-07T08:07:08;98561.81;;;2.13;96.98
20987;BME280;10652;50.306;8.570;2024-03-07T08:11:10;98560.78;;;2.37;96.54
20987;BME280;10652;50.306;8.570;2024-03-07T08:15:15;98555.50;;;2.52;95.00
20987;BME280;10652;50.306;8.570;2024-03-07T08:19:17;98559.78;;;2.58;93.33
20987;BME280;10652;50.306;8.570;2024-03-07T08:23:19;98549.41;;;2.55;92.44
20987;BME280;10652;50.306;8.570;2024-03-07T08:27:22;98554.56;;;2.61;93.08
20987;BME280;10652;50.306;8.570;2024-03-07T08:31:24;98550.09;;;2.79;93.47
20987;BME280;10652;50.306;8.570;2024-03-07T08:35:28;98547.50;;;2.78;90.75
20987;BME280;10652;50.306;8.570;2024-03-07T08:39:31;98551.81;;;2.82;91.49
20987;BME280;10652;50.306;8.570;2024-03-07T08:43:33;98543.94;;;2.94;90.69
20987;BME280;10652;50.306;8.570;2024-03-07T08:47:37;98546.53;;;2.94;90.46
20987;BME280;10652;50.306;8.570;2024-03-07T08:51:39;98549.16;;;2.88;89.24
20987;BME280;10652;50.306;8.570;2024-03-07T08:55:42;98544.84;;;2.88;90.46
20987;BME280;10652;50.306;8.570;2024-03-07T08:59:45;98542.22;;;2.93;89.54
20987;BME280;10652;50.306;8.570;2024-03-07T09:03:47;98543.94;;;2.94;87.77
20987;BME280;10652;50.306;8.570;2024-03-07T09:07:51;98545.53;;;3.06;86.87
20987;BME280;10652;50.306;8.570;2024-03-07T09:11:54;98548.06;;;3.15;85.96
20987;BME280;10652;50.306;8.570;2024-03-07T09:15:56;98550.56;;;3.22;85.48
20987;BME280;10652;50.306;8.570;2024-03-07T09:19:58;98553.06;;;3.31;86.27
20987;BME280;10652;50.306;8.570;2024-03-07T09:24:00;98554.78;;;3.34;85.15
20987;BME280;10652;50.306;8.570;2024-03-07T09:28:03;98557.28;;;3.45;85.05
20987;BME280;10652;50.306;8.570;2024-03-07T09:32:05;98542.47;;;3.53;84.66
20987;BME280;10652;50.306;8.570;2024-03-07T09:36:10;98536.31;;;3.63;83.98
20987;BME280;10652;50.306;8.570;2024-03-07T09:40:12;98546.59;;;3.72;83.10
20987;BME280;10652;50.306;8.570;2024-03-07T09:44:17;98535.16;;;3.88;81.98
20987;BME280;10652;50.306;8.570;2024-03-07T09:48:24;98537.69;;;3.94;80.93
20987;BME280;10652;50.306;8.570;2024-03-07T09:52:30;98536.03;;;3.89;79.83
20987;BME280;10652;50.306;8.570;2024-03-07T09:56:33;98546.50;;;3.78;79.37
20987;BME280;10652;50.306;8.570;2024-03-07T10:00:38;98535.16;;;3.87;79.77
20987;BME280;10652;50.306;8.570;2024-03-07T10:04:48;98540.34;;;3.90;79.87
20987;BME280;10652;50.306;8.570;2024-03-07T10:08:50;98542.88;;;3.94;80.66
20987;BME280;10652;50.306;8.570;2024-03-07T10:12:53;98538.63;;;3.90;82.14
20987;BME280;10652;50.306;8.570;2024-03-07T10:16:56;98543.09;;;3.73;83.12
20987;BME280;10652;50.306;8.570;2024-03-07T10:21:00;98539.72;;;3.65;84.83
20987;BME280;10652;50.306;8.570;2024-03-07T10:25:06;98533.38;;;3.92;85.34
20987;BME280;10652;50.306;8.570;2024-03-07T10:29:08;98530.59;;;4.05;84.17
20987;BME280;10652;50.306;8.570;2024-03-07T10:33:10;98534.81;;;4.14;83.45
20987;BME280;10652;50.306;8.570;2024-03-07T10:37:15;98528.75;;;4.13;83.25
20987;BME280;10652;50.306;8.570;2024-03-07T10:41:27;98526.78;;;4.31;82.75
20987;BME280;10652;50.306;8.570;2024-03-07T10:45:33;98518.00;;;4.39;82.97
20987;BME280;10652;50.306;8.570;2024-03-07T10:54:20;98524.00;;;4.41;81.83
20987;BME280;10652;50.306;8.570;2024-03-07T10:58:33;98520.38;;;4.53;81.62
20987;BME280;10652;50.306;8.570;2024-03-07T11:02:46;98515.97;;;4.58;80.58
20987;BME280;10652;50.306;8.570;2024-03-07T11:06:49;98508.41;;;4.41;80.39
20987;BME280;10652;50.306;8.570;2024-03-07T11:10:51;98504.66;;;4.59;81.78
20987;BME280;10652;50.306;8.570;2024-03-07T11:14:55;98510.28;;;4.87;81.54
20987;BME280;10652;50.306;8.570;2024-03-07T11:19:42;98508.06;;;5.14;79.68
20987;BME280;10652;50.306;8.570;2024-03-07T11:23:44;98497.13;;;5.42;78.61
20987;BME280;10652;50.306;8.570;2024-03-07T11:28:00;98490.06;;;5.47;76.48
20987;BME280;10652;50.306;8.570;2024-03-07T11:32:04;98480.34;;;5.56;76.39
20987;BME280;10652;50.306;8.570;2024-03-07T11:36:10;98475.41;;;5.84;75.92
20987;BME280;10652;50.306;8.570;2024-03-07T11:44:29;98455.91;;;6.02;74.03
20987;BME280;10652;50.306;8.570;2024-03-07T11:48:31;98453.78;;;6.56;72.90
20987;BME280;10652;50.306;8.570;2024-03-07T11:52:34;98437.91;;;6.64;67.46
20987;BME280;10652;50.306;8.570;2024-03-07T11:56:38;98438.25;;;6.85;66.51
20987;BME280;10652;50.306;8.570;2024-03-07T12:00:41;98436.59;;;7.14;67.17
20987;BME280;10652;50.306;8.570;2024-03-07T12:04:47;98423.63;;;7.12;62.81
20987;BME280;10652;50.306;8.570;2024-03-07T12:08:52;98417.59;;;7.09;65.10
20987;BME280;10652;50.306;8.570;2024-03-07T12:12:55;98410.47;;;7.14;64.08
20987;BME280;10652;50.306;8.570;2024-03-07T12:16:58;98403.31;;;7.22;64.85
20987;BME280;10652;50.306;8.570;2024-03-07T12:21:00;98401.50;;;7.24;64.03
20987;BME280;10652;50.306;8.570;2024-03-07T12:25:08;98405.47;;;7.37;63.12
20987;BME280;10652;50.306;8.570;2024-03-07T12:29:12;98392.38;;;7.38;63.31
20987;BME280;10652;50.306;8.570;2024-03-07T12:33:15;98387.06;;;7.42;63.61
20987;BME280;10652;50.306;8.570;2024-03-07T12:37:21;98390.06;;;7.28;62.06
20987;BME280;10652;50.306;8.570;2024-03-07T12:41:29;98376.53;;;7.45;63.14
20987;BME280;10652;50.306;8.570;2024-03-07T12:45:31;98377.19;;;7.51;62.08
20987;BME280;10652;50.306;8.570;2024-03-07T12:49:35;98373.00;;;7.75;62.57
20987;BME280;10652;50.306;8.570;2024-03-07T12:53:37;98367.44;;;7.86;62.24
20987;BME280;10652;50.306;8.570;2024-03-07T12:57:40;98365.31;;;7.97;61.96
20987;BME280;10652;50.306;8.570;2024-03-07T13:01:43;98365.16;;;7.75;60.55
20987;BME280;10652;50.306;8.570;2024-03-07T13:05:49;98363.75;;;7.34;61.30
20987;BME280;10652;50.306;8.570;2024-03-07T13:09:51;98359.78;;;7.21;63.36
20987;BME280;10652;50.306;8.570;2024-03-07T13:13:53;98362.41;;;7.21;63.50
20987;BME280;10652;50.306;8.570;2024-03-07T13:17:56;98357.34;;;7.15;64.73
20987;BME280;10652;50.306;8.570;2024-03-07T13:21:58;98350.91;;;6.96;65.04
20987;BME280;10652;50.306;8.570;2024-03-07T13:26:01;98352.72;;;6.61;66.74
20987;BME280;10652;50.306;8.570;2024-03-07T13:30:04;98355.97;;;6.37;68.85
20987;BME280;10652;50.306;8.570;2024-03-07T13:34:09;98358.13;;;6.18;69.58
20987;BME280;10652;50.306;8.570;2024-03-07T13:38:17;98356.47;;;6.16;70.60
20987;BME280;10652;50.306;8.570;2024-03-07T13:42:20;98351.16;;;6.19;70.03
20987;BME280;10652;50.306;8.570;2024-03-07T13:46:23;98354.00;;;6.10;69.75
20987;BME280;10652;50.306;8.570;2024-03-07T13:50:27;98342.03;;;6.02;70.27
20987;BME280;10652;50.306;8.570;2024-03-07T13:54:52;98346.25;;;6.07;70.69
20987;BME280;10652;50.306;8.570;2024-03-07T14:03:15;98333.25;;;6.05;70.79
20987;BME280;10652;50.306;8.570;2024-03-07T14:07:33;98326.25;;;6.07;70.84
20987;BME280;10652;50.306;8.570;2024-03-07T14:16:21;98326.72;;;6.23;68.69
20987;BME280;10652;50.306;8.570;2024-03-07T14:21:11;98319.63;;;6.31;68.45
20987;BME280;10652;50.306;8.570;2024-03-07T14:38:28;98309.00;;;6.37;65.55
20987;BME280;10652;50.306;8.570;2024-03-07T14:42:31;98309.28;;;6.25;63.94
20987;BME280;10652;50.306;8.570;2024-03-07T14:46:33;98312.78;;;6.24;64.50
20987;BME280;10652;50.306;8.570;2024-03-07T14:50:37;98301.13;;;6.40;64.61
20987;BME280;10652;50.306;8.570;2024-03-07T14:54:40;98301.56;;;6.54;64.12
20987;BME280;10652;50.306;8.570;2024-03-07T14:58:44;98295.34;;;6.60;63.41
20987;BME280;10652;50.306;8.570;2024-03-07T15:02:47;98305.88;;;6.57;63.12
20987;BME280;10652;50.306;8.570;2024-03-07T15:06:50;98291.31;;;6.48;62.51
20987;BME280;10652;50.306;8.570;2024-03-07T15:11:05;98297.56;;;6.42;63.18
20987;BME280;10652;50.306;8.570;2024-03-07T15:15:15;98288.06;;;6.40;63.46
20987;BME280;10652;50.306;8.570;2024-03-07T15:19:19;98287.44;;;6.30;61.62
20987;BME280;10652;50.306;8.570;2024-03-07T15:23:22;98286.69;;;6.24;62.14
20987;BME280;10652;50.306;8.570;2024-03-07T15:27:24;98294.41;;;6.30;62.63
20987;BME280;10652;50.306;8.570;2024-03-07T15:31:27;98291.03;;;6.25;61.36
20987;BME280;10652;50.306;8.570;2024-03-07T15:35:29;98279.75;;;6.23;61.65
20987;BME280;10652;50.306;8.570;2024-03-07T15:39:32;98282.16;;;6.32;61.25
20987;BME280;10652;50.306;8.570;2024-03-07T15:43:40;98277.78;;;6.34;61.64
20987;BME280;10652;50.306;8.570;2024-03-07T15:47:49;98268.81;;;6.44;61.35
20987;BME280;10652;50.306;8.570;2024-03-07T15:51:52;98273.91;;;6.48;60.50
20987;BME280;10652;50.306;8.570;2024-03-07T15:55:54;98254.97;;;6.40;59.40
20987;BME280;10652;50.306;8.570;2024-03-07T15:59:56;98259.56;;;6.32;59.55
20987;BME280;10652;50.306;8.570;2024-03-07T16:03:58;98255.09;;;6.36;60.27
20987;BME280;10652;50.306;8.570;2024-03-07T16:08:03;98256.06;;;6.33;60.09
20987;BME280;10652;50.306;8.570;2024-03-07T16:12:09;98249.09;;;6.34;59.46
20987;BME280;10652;50.306;8.570;2024-03-07T16:16:12;98248.31;;;6.29;58.91
20987;BME280;10652;50.306;8.570;2024-03-07T16:20:15;98240.72;;;6.20;58.94
20987;BME280;10652;50.306;8.570;2024-03-07T16:24:18;98240.13;;;6.09;58.91
20987;BME280;10652;50.306;8.570;2024-03-07T16:28:21;98240.56;;;5.93;59.05
20987;BME280;10652;50.306;8.570;2024-03-07T16:32:32;98241.66;;;5.85;58.73
20987;BME280;10652;50.306;8.570;2024-03-07T16:36:35;98244.41;;;5.77;59.11
20987;BME280;10652;50.306;8.570;2024-03-07T16:40:38;98241.88;;;5.76;59.66
20987;BME280;10652;50.306;8.570;2024-03-07T16:44:44;98242.75;;;5.76;60.10
20987;BME280;10652;50.306;8.570;2024-03-07T16:48:47;98241.09;;;5.72;60.10
20987;BME280;10652;50.306;8.570;2024-03-07T16:52:49;98239.53;;;5.65;60.73
20987;BME280;10652;50.306;8.570;2024-03-07T16:56:54;98241.38;;;5.60;61.17
20987;BME280;10652;50.306;8.570;2024-03-07T17:00:57;98235.47;;;5.53;61.40
20987;BME280;10652;50.306;8.570;2024-03-07T17:05:01;98243.53;;;5.43;61.78
20987;BME280;10652;50.306;8.570;2024-03-07T17:09:06;98241.81;;;5.42;62.15
20987;BME280;10652;50.306;8.570;2024-03-07T17:13:13;98243.53;;;5.43;62.12
20987;BME280;10652;50.306;8.570;2024-03-07T17:17:16;98244.41;;;5.42;62.27
20987;BME280;10652;50.306;8.570;2024-03-07T17:21:18;98246.25;;;5.38;62.06
20987;BME280;10652;50.306;8.570;2024-03-07T17:25:21;98256.88;;;5.29;60.82
20987;BME280;10652;50.306;8.570;2024-03-07T17:29:23;98250.16;;;5.19;60.97
20987;BME280;10652;50.306;8.570;2024-03-07T17:33:25;98253.81;;;5.10;60.98
20987;BME280;10652;50.306;8.570;2024-03-07T17:37:28;98254.78;;;5.06;61.25
20987;BME280;10652;50.306;8.570;2024-03-07T17:41:30;98250.63;;;4.98;60.88
20987;BME280;10652;50.306;8.570;2024-03-07T17:45:32;98255.44;;;4.76;61.11
20987;BME280;10652;50.306;8.570;2024-03-07T17:49:39;98258.31;;;4.62;61.55
20987;BME280;10652;50.306;8.570;2024-03-07T17:53:42;98260.25;;;4.53;61.79
20987;BME280;10652;50.306;8.570;2024-03-07T17:57:46;98262.06;;;4.48;62.38
20987;BME280;10652;50.306;8.570;2024-03-07T18:01:49;98260.47;;;4.41;62.33
20987;BME280;10652;50.306;8.570;2024-03-07T18:05:51;98261.38;;;4.40;62.35
20987;BME280;10652;50.306;8.570;2024-03-07T18:09:54;98263.13;;;4.36;62.84
20987;BME280;10652;50.306;8.570;2024-03-07T18:13:57;98254.72;;;4.23;62.72
20987;BME280;10652;50.306;8.570;2024-03-07T18:18:00;98259.13;;;4.18;63.21
20987;BME280;10652;50.306;8.570;2024-03-07T18:22:06;98248.81;;;4.14;63.74
20987;BME280;10652;50.306;8.570;2024-03-07T18:26:08;98253.31;;;4.07;63.79
20987;BME280;10652;50.306;8.570;2024-03-07T18:30:13;98248.25;;;3.98;63.37
20987;BME280;10652;50.306;8.570;2024-03-07T18:34:15;98250.06;;;3.93;63.30
20987;BME280;10652;50.306;8.570;2024-03-07T18:38:21;98239.78;;;3.86;63.50
20987;BME280;10652;50.306;8.570;2024-03-07T18:42:23;98247.75;;;3.75;63.93
20987;BME280;10652;50.306;8.570;2024-03-07T18:46:25;98248.78;;;3.65;64.12
20987;BME280;10652;50.306;8.570;2024-03-07T18:50:27;98264.53;;;3.56;64.30
20987;BME280;10652;50.306;8.570;2024-03-07T18:54:29;98255.06;;;3.52;64.14
20987;BME280;10652;50.306;8.570;2024-03-07T18:58:31;98253.41;;;3.48;64.62
20987;BME280;10652;50.306;8.570;2024-03-07T19:02:34;98255.16;;;3.46;65.03
20987;BME280;10652;50.306;8.570;2024-03-07T19:06:37;98248.25;;;3.45;65.22
20987;BME280;10652;50.306;8.570;2024-03-07T19:10:40;98248.22;;;3.46;65.19
20987;BME280;10652;50.306;8.570;2024-03-07T19:14:44;98248.19;;;3.48;65.15
20987;BME280;10652;50.306;8.570;2024-03-07T19:18:47;98240.47;;;3.45;65.16
20987;BME280;10652;50.306;8.570;2024-03-07T19:22:50;98241.41;;;3.39;65.82
20987;BME280;10652;50.306;8.570;2024-03-07T19:26:57;98232.91;;;3.31;65.34
20987;BME280;10652;50.306;8.570;2024-03-07T19:31:00;98233.72;;;3.31;65.88
20987;BME280;10652;50.306;8.570;2024-03-07T19:35:02;98238.97;;;3.28;65.92
20987;BME280;10652;50.306;8.570;2024-03-07T19:39:06;98234.66;;;3.27;65.99
20987;BME280;10652;50.306;8.570;2024-03-07T19:43:15;98215.78;;;3.18;66.24
20987;BME280;10652;50.306;8.570;2024-03-07T19:47:17;98226.25;;;3.12;66.63
20987;BME280;10652;50.306;8.570;2024-03-07T19:51:19;98225.41;;;3.11;66.13
20987;BME280;10652;50.306;8.570;2024-03-07T19:55:26;98227.13;;;3.12;66.73
20987;BME280;10652;50.306;8.570;2024-03-07T19:59:31;98221.94;;;3.11;66.42
20987;BME280;10652;50.306;8.570;2024-03-07T20:03:34;98220.28;;;3.05;66.41
20987;BME280;10652;50.306;8.570;2024-03-07T20:07:38;98218.59;;;3.04;66.36
20987;BME280;10652;50.306;8.570;2024-03-07T20:11:40;98205.63;;;3.04;66.60
20987;BME280;10652;50.306;8.570;2024-03-07T20:15:42;98206.50;;;3.03;66.73
20987;BME280;10652;50.306;8.570;2024-03-07T20:19:47;98217.72;;;3.04;66.62
20987;BME280;10652;50.306;8.570;2024-03-07T20:23:49;98205.63;;;3.03;66.38
20987;BME280;10652;50.306;8.570;2024-03-07T20:27:51;98203.03;;;3.04;66.85
20987;BME280;10652;50.306;8.570;2024-03-07T20:31:59;98197.84;;;3.01;66.28
20987;BME280;10652;50.306;8.570;2024-03-07T20:36:02;98197.91;;;2.98;66.34
20987;BME280;10652;50.306;8.570;2024-03-07T20:40:06;98204.81;;;2.99;66.57
20987;BME280;10652;50.306;8.570;2024-03-07T20:44:12;98205.63;;;3.03;66.54
20987;BME280;10652;50.306;8.570;2024-03-07T20:48:14;98199.56;;;3.02;65.89
20987;BME280;10652;50.306;8.570;2024-03-07T20:52:16;98200.38;;;3.07;66.10
20987;BME280;10652;50.306;8.570;2024-03-07T20:56:18;98196.00;;;3.09;65.61
20987;BME280;10652;50.306;8.570;2024-03-07T21:00:22;98206.44;;;3.06;65.33
20987;BME280;10652;50.306;8.570;2024-03-07T21:04:33;98190.91;;;3.03;65.79
20987;BME280;10652;50.306;8.570;2024-03-07T21:08:35;98201.28;;;3.03;65.65
20987;BME280;10652;50.306;8.570;2024-03-07T21:12:37;98202.97;;;3.06;65.20
20987;BME280;10652;50.306;8.570;2024-03-07T21:16:45;98192.63;;;3.04;64.88
20987;BME280;10652;50.306;8.570;2024-03-07T21:20:48;98186.66;;;2.99;65.01
20987;BME280;10652;50.306;8.570;2024-03-07T21:24:51;98192.72;;;2.98;65.44
20987;BME280;10652;50.306;8.570;2024-03-07T21:28:53;98197.84;;;3.04;65.61
20987;BME280;10652;50.306;8.570;2024-03-07T21:32:56;98194.31;;;3.08;65.04
20987;BME280;10652;50.306;8.570;2024-03-07T21:37:00;98181.47;;;2.98;64.37
20987;BME280;10652;50.306;8.570;2024-03-07T21:41:02;98186.75;;;2.91;64.75
20987;BME280;10652;50.306;8.570;2024-03-07T21:45:07;98182.56;;;2.83;65.18
20987;BME280;10652;50.306;8.570;2024-03-07T21:49:12;98194.72;;;2.78;64.66
20987;BME280;10652;50.306;8.570;2024-03-07T21:53:16;98191.38;;;2.70;65.32
20987;BME280;10652;50.306;8.570;2024-03-07T21:57:18;98170.72;;;2.64;65.45
20987;BME280;10652;50.306;8.570;2024-03-07T22:01:20;98174.22;;;2.63;65.48
20987;BME280;10652;50.306;8.570;2024-03-07T22:05:23;98172.47;;;2.62;65.08
20987;BME280;10652;50.306;8.570;2024-03-07T22:09:25;98163.91;;;2.57;65.17
20987;BME280;10652;50.306;8.570;2024-03-07T22:13:28;98158.03;;;2.42;65.70